createdAt,value
2018-04-17T00:00:48.295Z,10.20
2018-04-17T00:03:15.967Z,10.20
2018-04-17T00:05:43.557Z,10.20
2018-04-17T00:08:11.173Z,10.30
2018-04-17T00:10:38.744Z,10.20
2018-04-17T00:13:07.836Z,10.20
2018-04-17T00:15:35.411Z,10.20
2018-04-17T00:18:03.794Z,10.10
2018-04-17T00:20:31.456Z,10.00
2018-04-17T00:22:59.044Z,10.00
2018-04-17T00:25:26.613Z,9.90
2018-04-17T00:27:54.196Z,9.80
2018-04-17T00:30:21.763Z,9.80
2018-04-17T00:32:49.354Z,9.70
2018-04-17T00:35:16.929Z,9.70
2018-04-17T00:37:44.521Z,9.70
2018-04-17T00:40:12.152Z,9.70
2018-04-17T00:42:39.807Z,9.70
2018-04-17T00:45:08.267Z,9.70
2018-04-17T00:47:35.815Z,9.60
2018-04-17T00:50:03.377Z,9.60
2018-04-17T00:52:30.981Z,9.60
2018-04-17T00:54:58.547Z,9.60
2018-04-17T00:57:26.929Z,9.40
2018-04-17T00:59:55.310Z,9.30
2018-04-17T01:02:22.871Z,9.30
2018-04-17T01:04:50.460Z,9.30
2018-04-17T01:07:18.093Z,9.30
2018-04-17T01:09:45.684Z,9.30
2018-04-17T01:12:13.253Z,9.30
2018-04-17T01:14:40.847Z,9.30
2018-04-17T01:17:08.427Z,9.30
2018-04-17T01:19:36.100Z,9.20
2018-04-17T01:22:04.445Z,9.00
2018-04-17T01:24:32.024Z,9.00
2018-04-17T01:26:59.582Z,8.90
2018-04-17T01:29:27.174Z,8.80
2018-04-17T01:31:55.515Z,8.80
2018-04-17T01:34:23.096Z,8.80
2018-04-17T01:36:50.681Z,8.80
2018-04-17T01:39:19.045Z,8.80
2018-04-17T01:41:47.402Z,8.80
2018-04-17T01:44:14.987Z,8.80
2018-04-17T01:46:42.580Z,8.70
2018-04-17T01:49:10.160Z,8.70
2018-04-17T01:51:37.755Z,8.60
2018-04-17T01:54:05.324Z,8.60
2018-04-17T01:56:33.000Z,8.60
2018-04-17T01:59:01.338Z,8.60
2018-04-17T02:01:28.928Z,8.60
2018-04-17T02:03:57.259Z,8.60
2018-04-17T02:06:24.853Z,8.60
2018-04-17T02:08:52.429Z,8.60
2018-04-17T02:11:19.999Z,8.60
2018-04-17T02:13:49.100Z,8.70
2018-04-17T02:16:17.439Z,8.70
2018-04-17T02:18:45.024Z,8.70
2018-04-17T02:21:12.601Z,8.70
2018-04-17T02:23:40.970Z,8.60
2018-04-17T02:26:08.546Z,8.60
2018-04-17T02:28:36.920Z,8.50
2018-04-17T02:31:04.489Z,8.50
2018-04-17T02:33:32.855Z,8.20
2018-04-17T02:36:00.423Z,8.20
2018-04-17T02:38:28.017Z,8.10
2018-04-17T02:40:55.589Z,8.00
2018-04-17T02:43:23.208Z,8.00
2018-04-17T02:45:50.780Z,8.00
2018-04-17T02:48:19.157Z,8.00
2018-04-17T02:50:47.496Z,8.10
2018-04-17T02:53:15.101Z,8.00
2018-04-17T02:55:43.482Z,8.10
2018-04-17T02:58:11.819Z,8.20
2018-04-17T03:00:39.406Z,8.20
2018-04-17T03:03:06.971Z,8.20
2018-04-17T03:05:35.383Z,8.10
2018-04-17T03:08:02.958Z,8.10
2018-04-17T03:10:30.581Z,8.00
2018-04-17T03:12:58.964Z,7.90
2018-04-17T03:15:27.324Z,7.80
2018-04-17T03:17:54.891Z,7.70
2018-04-17T03:20:22.561Z,7.70
2018-04-17T03:22:50.228Z,7.70
2018-04-17T03:25:17.821Z,7.80
2018-04-17T03:27:45.392Z,7.80
2018-04-17T03:30:12.980Z,7.90
2018-04-17T03:32:40.579Z,7.90
2018-04-17T03:35:08.956Z,8.00
2018-04-17T03:37:37.469Z,8.00
2018-04-17T03:40:05.039Z,8.10
2018-04-17T03:42:32.624Z,8.00
2018-04-17T03:45:00.228Z,7.90
2018-04-17T03:47:28.609Z,7.90
2018-04-17T03:49:56.992Z,7.90
2018-04-17T03:52:25.355Z,8.00
2018-04-17T03:54:53.032Z,8.00
2018-04-17T03:57:20.651Z,8.10
2018-04-17T03:59:48.216Z,8.10
2018-04-17T04:02:15.809Z,8.10
2018-04-17T04:04:43.472Z,8.00
2018-04-17T04:07:11.141Z,8.00
2018-04-17T04:09:39.524Z,8.00
2018-04-17T04:12:07.907Z,8.00
2018-04-17T04:14:36.249Z,8.00
2018-04-17T04:17:15.769Z,8.00
2018-04-17T04:22:52.676Z,8.10
2018-04-17T04:25:37.704Z,8.10
2018-04-17T04:28:06.071Z,7.90
2018-04-17T04:30:33.653Z,7.90
2018-04-17T04:33:02.123Z,7.90
2018-04-17T04:35:30.497Z,7.90
2018-04-17T04:37:58.879Z,8.00
2018-04-17T04:40:27.224Z,8.00
2018-04-17T04:42:54.820Z,8.00
2018-04-17T04:45:22.393Z,8.10
2018-04-17T04:47:50.741Z,8.10
2018-04-17T04:50:18.336Z,8.10
2018-04-17T04:52:46.685Z,8.00
2018-04-17T04:55:14.276Z,8.10
2018-04-17T04:57:42.634Z,8.30
2018-04-17T05:00:11.013Z,9.00
2018-04-17T05:02:38.581Z,9.00
2018-04-17T05:05:06.169Z,9.80
2018-04-17T05:07:34.509Z,10.20
2018-04-17T05:10:02.110Z,10.20
2018-04-17T05:12:29.691Z,9.90
2018-04-17T05:14:57.309Z,9.70
2018-04-17T05:17:25.661Z,9.20
2018-04-17T05:19:53.259Z,9.20
2018-04-17T05:22:21.637Z,9.10
2018-04-17T05:24:50.001Z,9.50
2018-04-17T05:27:17.577Z,9.50
2018-04-17T05:29:45.176Z,10.10
2018-04-17T05:32:12.753Z,10.20
2018-04-17T05:34:40.364Z,10.20
2018-04-17T05:37:08.034Z,10.10
2018-04-17T05:39:36.372Z,11.00
2018-04-17T05:42:03.964Z,11.00
2018-04-17T05:44:31.533Z,13.10
2018-04-17T05:46:59.109Z,15.10
2018-04-17T05:49:27.393Z,18.20
2018-04-17T05:51:55.698Z,19.40
2018-04-17T05:54:23.213Z,19.40
2018-04-17T05:56:51.515Z,21.10
2018-04-17T05:59:19.042Z,21.00
2018-04-17T06:01:46.581Z,21.50
2018-04-17T06:04:14.101Z,21.70
2018-04-17T06:06:41.640Z,22.20
2018-04-17T06:09:09.924Z,23.00
2018-04-17T06:11:38.225Z,23.00
2018-04-17T06:14:05.741Z,23.00
2018-04-17T06:16:33.360Z,21.70
2018-04-17T06:19:00.925Z,20.90
2018-04-17T06:21:28.484Z,21.70
2018-04-17T06:23:56.001Z,22.60
2018-04-17T06:26:24.317Z,24.10
2018-04-17T06:28:51.838Z,24.00
2018-04-17T06:31:20.151Z,25.30
2018-04-17T06:33:47.733Z,25.20
2018-04-17T06:36:15.249Z,25.70
2018-04-17T06:38:43.553Z,26.60
2018-04-17T06:41:11.068Z,26.50
2018-04-17T06:43:40.118Z,27.10
2018-04-17T06:46:07.637Z,27.10
2018-04-17T06:48:35.171Z,26.90
2018-04-17T06:51:02.711Z,25.70
2018-04-17T06:53:30.245Z,25.90
2018-04-17T06:55:57.773Z,26.00
2018-04-17T06:58:26.119Z,25.80
2018-04-17T07:00:53.633Z,25.80
2018-04-17T07:03:21.983Z,25.80
2018-04-17T07:05:49.472Z,25.80
2018-04-17T07:08:17.784Z,22.30
2018-04-17T07:10:45.309Z,22.20
2018-04-17T07:13:13.634Z,19.70
2018-04-17T07:15:41.196Z,19.70
2018-04-17T07:18:08.756Z,19.50
2018-04-17T07:20:36.296Z,19.90
2018-04-17T07:23:03.824Z,20.30
2018-04-17T07:25:32.134Z,21.90
2018-04-17T07:27:59.660Z,21.90
2018-04-17T07:30:27.214Z,22.70
2018-04-17T07:32:54.835Z,22.70
2018-04-17T07:35:22.404Z,23.00
2018-04-17T07:37:49.929Z,23.30
2018-04-17T07:40:18.289Z,23.00
2018-04-17T07:42:45.784Z,23.00
2018-04-17T07:45:13.333Z,23.30
2018-04-17T07:47:53.464Z,23.80
2018-04-17T07:50:21.017Z,23.80
2018-04-17T07:52:48.546Z,24.00
2018-04-17T07:55:16.092Z,24.30
2018-04-17T07:57:43.616Z,24.60
2018-04-17T08:00:11.189Z,24.80
2018-04-17T08:02:39.477Z,24.80
2018-04-17T08:05:07.767Z,24.70
2018-04-17T08:07:35.311Z,24.70
2018-04-17T08:10:03.606Z,24.90
2018-04-17T08:12:31.149Z,24.80
2018-04-17T08:14:59.441Z,24.60
2018-04-17T08:17:26.988Z,24.60
2018-04-17T08:19:55.271Z,24.80
2018-04-17T08:22:23.579Z,24.70
2018-04-17T08:24:51.102Z,24.70
2018-04-17T08:27:19.410Z,24.80
2018-04-17T08:29:46.931Z,24.80
2018-04-17T08:32:14.478Z,24.70
2018-04-17T08:34:42.009Z,24.50
2018-04-17T08:37:09.538Z,24.60
2018-04-17T08:39:37.848Z,25.10
2018-04-17T08:42:05.377Z,25.10
2018-04-17T08:44:32.931Z,25.30
2018-04-17T08:47:01.217Z,24.90
2018-04-17T08:49:28.768Z,24.90
2018-04-17T08:51:57.056Z,25.00
2018-04-17T08:54:24.642Z,25.00
2018-04-17T08:56:52.157Z,25.30
2018-04-17T08:59:19.708Z,25.10
2018-04-17T09:01:48.008Z,25.40
2018-04-17T09:04:16.316Z,25.80
2018-04-17T09:06:43.843Z,25.80
2018-04-17T09:09:12.144Z,26.10
2018-04-17T09:11:39.721Z,26.10
2018-04-17T09:14:07.272Z,26.40
2018-04-17T09:16:34.841Z,26.20
2018-04-17T09:19:02.396Z,26.50
2018-04-17T09:21:29.925Z,27.00
2018-04-17T09:23:58.268Z,26.70
2018-04-17T09:26:25.786Z,26.70
2018-04-17T09:28:53.925Z,26.50
2018-04-17T09:31:21.465Z,26.00
2018-04-17T09:33:48.980Z,25.90
2018-04-17T09:36:16.564Z,26.20
2018-04-17T09:38:44.080Z,26.60
2018-04-17T09:41:12.393Z,27.50
2018-04-17T09:43:39.917Z,27.50
2018-04-17T09:46:07.475Z,28.00
2018-04-17T09:48:34.996Z,28.00
2018-04-17T09:51:02.539Z,27.70
2018-04-17T09:53:30.057Z,27.80
2018-04-17T09:55:57.591Z,28.00
2018-04-17T09:58:25.101Z,28.30
2018-04-17T10:00:58.324Z,28.50
2018-04-17T10:03:25.842Z,28.50
2018-04-17T10:05:54.123Z,28.70
2018-04-17T10:08:22.435Z,28.10
2018-04-17T10:10:49.953Z,28.10
2018-04-17T10:13:17.567Z,27.50
2018-04-17T10:15:45.085Z,26.70
2018-04-17T10:18:13.401Z,27.00
2018-04-17T10:20:40.917Z,26.90
2018-04-17T10:23:09.220Z,26.80
2018-04-17T10:25:36.740Z,26.70
2018-04-17T10:28:04.277Z,26.50
2018-04-17T10:30:31.793Z,26.60
2018-04-17T10:33:00.101Z,28.00
2018-04-17T10:35:27.624Z,27.90
2018-04-17T10:37:55.932Z,28.80
2018-04-17T10:40:23.448Z,28.80
2018-04-17T10:42:51.729Z,28.10
2018-04-17T10:45:19.344Z,28.10
2018-04-17T10:47:46.861Z,27.40
2018-04-17T10:50:14.400Z,26.90
2018-04-17T10:52:41.916Z,26.30
2018-04-17T10:55:09.453Z,25.90
2018-04-17T10:57:36.980Z,26.10
2018-04-17T11:00:04.525Z,26.50
2018-04-17T11:02:32.069Z,26.20
2018-04-17T11:04:59.640Z,26.10
2018-04-17T11:07:27.156Z,25.80
2018-04-17T11:09:55.460Z,25.70
2018-04-17T11:12:22.980Z,25.70
2018-04-17T11:14:50.539Z,25.80
2018-04-17T11:17:18.068Z,26.10
2018-04-17T11:19:45.588Z,26.20
2018-04-17T11:22:13.894Z,27.00
2018-04-17T11:24:41.416Z,27.00
2018-04-17T11:27:09.725Z,27.70
2018-04-17T11:29:37.245Z,27.70
2018-04-17T11:32:04.786Z,27.80
2018-04-17T11:34:32.329Z,28.10
2018-04-17T11:36:59.874Z,28.70
2018-04-17T11:39:27.393Z,29.20
2018-04-17T11:41:55.692Z,29.90
2018-04-17T11:44:23.208Z,29.80
2018-04-17T11:46:50.744Z,29.90
2018-04-17T11:49:18.259Z,29.30
2018-04-17T11:51:46.569Z,29.70
2018-04-17T11:54:14.089Z,29.70
2018-04-17T11:56:42.047Z,29.40
2018-04-17T11:59:11.511Z,27.40
2018-04-17T12:01:39.057Z,27.40
2018-04-17T12:04:06.601Z,26.50
2018-04-17T12:06:34.892Z,25.10
2018-04-17T12:09:02.433Z,25.10
2018-04-17T12:11:30.036Z,24.80
2018-04-17T12:13:57.576Z,24.80
2018-04-17T12:16:25.094Z,24.80
2018-04-17T12:18:52.636Z,24.80
2018-04-17T12:21:20.152Z,24.70
2018-04-17T12:23:47.704Z,24.80
2018-04-17T12:26:16.014Z,24.50
2018-04-17T12:28:43.533Z,24.50
2018-04-17T12:31:11.858Z,24.40
2018-04-17T12:33:39.372Z,24.40
2018-04-17T12:36:07.699Z,25.40
2018-04-17T12:38:35.216Z,25.40
2018-04-17T12:41:03.520Z,26.00
2018-04-17T12:43:31.040Z,26.00
2018-04-17T12:45:58.576Z,26.20
2018-04-17T12:48:26.093Z,26.10
2018-04-17T12:50:54.395Z,25.90
2018-04-17T12:53:21.960Z,25.90
2018-04-17T12:55:49.526Z,25.60
2018-04-17T12:58:17.052Z,24.90
2018-04-17T13:00:45.353Z,24.40
2018-04-17T13:03:12.924Z,24.40
2018-04-17T13:05:40.440Z,24.30
2018-04-17T13:08:08.758Z,23.50
2018-04-17T13:10:36.282Z,23.50
2018-04-17T13:13:04.583Z,22.70
2018-04-17T13:15:32.160Z,22.60
2018-04-17T13:17:59.695Z,22.50
2018-04-17T13:20:27.975Z,22.40
2018-04-17T13:22:56.272Z,22.70
2018-04-17T13:25:23.795Z,22.70
2018-04-17T13:27:51.342Z,23.30
2018-04-17T13:30:18.864Z,23.80
2018-04-17T13:32:46.400Z,24.30
2018-04-17T13:35:14.679Z,25.20
2018-04-17T13:37:42.199Z,25.20
2018-04-17T13:40:09.828Z,25.20
2018-04-17T13:42:37.392Z,25.10
2018-04-17T13:45:04.932Z,24.60
2018-04-17T13:47:33.212Z,23.70
2018-04-17T13:50:00.792Z,23.60
2018-04-17T13:52:28.315Z,23.50
2018-04-17T13:54:56.625Z,23.90
2018-04-17T13:57:24.161Z,23.90
2018-04-17T13:59:52.485Z,24.40
2018-04-17T14:02:20.000Z,24.40
2018-04-17T14:04:48.302Z,24.60
2018-04-17T14:07:15.820Z,24.60
2018-04-17T14:09:43.368Z,24.70
2018-04-17T14:12:10.880Z,24.50
2018-04-17T14:14:38.396Z,24.00
2018-04-17T14:17:05.941Z,23.70
2018-04-17T14:19:33.481Z,23.70
2018-04-17T14:22:01.017Z,24.00
2018-04-17T14:24:28.536Z,24.10
2018-04-17T14:26:56.083Z,23.90
2018-04-17T14:29:23.621Z,23.70
2018-04-17T14:31:51.189Z,23.50
2018-04-17T14:34:18.706Z,23.50
2018-04-17T14:36:47.022Z,23.20
2018-04-17T14:39:14.545Z,23.20
2018-04-17T14:41:42.853Z,23.20
2018-04-17T14:44:10.372Z,23.20
2018-04-17T14:46:37.909Z,23.30
2018-04-17T14:49:05.428Z,23.40
2018-04-17T14:51:33.107Z,23.40
2018-04-17T14:54:00.629Z,23.40
2018-04-17T14:56:28.932Z,23.70
2018-04-17T14:58:56.452Z,23.60
2018-04-17T15:01:23.996Z,23.90
2018-04-17T15:03:51.528Z,24.30
2018-04-17T15:06:19.096Z,24.30
2018-04-17T15:08:46.645Z,24.30
2018-04-17T15:11:14.161Z,24.40
2018-04-17T15:13:43.205Z,24.60
2018-04-17T15:16:10.730Z,24.60
2018-04-17T15:18:39.051Z,24.60
2018-04-17T15:21:06.569Z,24.60
2018-04-17T15:23:34.883Z,24.40
2018-04-17T15:26:02.409Z,24.40
2018-04-17T15:28:30.711Z,24.20
2018-04-17T15:30:58.228Z,24.20
2018-04-17T15:33:25.769Z,24.40
2018-04-17T15:35:53.289Z,24.50
2018-04-17T15:38:20.834Z,24.50
2018-04-17T15:40:49.148Z,24.40
2018-04-17T15:43:16.669Z,24.30
2018-04-17T15:45:44.984Z,24.00
2018-04-17T15:48:12.505Z,24.00
2018-04-17T15:50:40.043Z,23.80
2018-04-17T15:53:07.561Z,23.50
2018-04-17T15:55:35.096Z,23.40
2018-04-17T15:58:03.416Z,23.00
2018-04-17T16:00:30.959Z,23.00
2018-04-17T16:02:58.480Z,22.60
2018-04-17T16:05:26.024Z,22.50
2018-04-17T16:07:53.549Z,22.40
2018-04-17T16:10:21.093Z,22.40
2018-04-17T16:12:48.608Z,22.30
2018-04-17T16:15:16.143Z,22.30
2018-04-17T16:17:43.660Z,22.20
2018-04-17T16:20:11.944Z,22.20
2018-04-17T16:22:40.245Z,22.00
2018-04-17T16:25:07.760Z,22.00
2018-04-17T16:27:35.376Z,21.90
2018-04-17T16:30:02.897Z,21.70
2018-04-17T16:32:30.500Z,21.60
2018-04-17T16:34:58.013Z,21.60
2018-04-17T16:37:26.327Z,21.50
2018-04-17T16:39:53.852Z,21.50
2018-04-17T16:42:21.465Z,21.50
2018-04-17T16:44:48.985Z,21.40
2018-04-17T16:47:17.288Z,21.10
2018-04-17T16:49:44.868Z,21.10
2018-04-17T16:52:12.403Z,20.90
2018-04-17T16:54:40.694Z,20.80
2018-04-17T16:57:08.244Z,20.80
2018-04-17T16:59:35.824Z,20.70
2018-04-17T17:02:03.389Z,20.60
2018-04-17T17:07:04.717Z,20.60
2018-04-17T17:09:33.037Z,20.60
2018-04-17T17:12:00.552Z,20.60
2018-04-17T17:14:28.856Z,20.50
2018-04-17T17:16:56.376Z,20.50
2018-04-17T17:19:23.988Z,20.50
2018-04-17T17:21:51.505Z,20.40
2018-04-17T17:24:19.060Z,20.40
2018-04-17T17:26:46.680Z,20.30
2018-04-17T17:29:14.214Z,20.30
2018-04-17T17:31:42.501Z,19.90
2018-04-17T17:34:10.033Z,19.90
2018-04-17T17:36:38.320Z,19.60
2018-04-17T17:39:06.622Z,19.50
2018-04-17T17:41:34.140Z,19.50
2018-04-17T17:44:01.741Z,19.40
2018-04-17T17:46:29.233Z,19.20
2018-04-17T17:48:56.748Z,19.10
2018-04-17T17:51:25.048Z,18.90
2018-04-17T17:53:52.568Z,18.80
2018-04-17T17:56:20.104Z,18.80
2018-04-17T17:58:47.640Z,18.60
2018-04-17T18:01:15.168Z,18.50
2018-04-17T18:03:43.452Z,18.20
2018-04-17T18:06:11.033Z,18.20
2018-04-17T18:08:38.595Z,18.10
2018-04-17T18:11:06.193Z,18.00
2018-04-17T18:13:33.673Z,17.80
2018-04-17T18:16:02.000Z,17.60
2018-04-17T18:18:29.520Z,17.60
2018-04-17T18:20:57.824Z,17.30
2018-04-17T18:23:25.340Z,17.30
2018-04-17T18:25:52.872Z,17.20
2018-04-17T18:28:20.400Z,17.10
2018-04-17T18:30:47.944Z,17.00
2018-04-17T18:33:16.256Z,16.80
2018-04-17T18:35:43.820Z,16.70
2018-04-17T18:38:11.338Z,16.70
2018-04-17T18:40:39.629Z,16.60
2018-04-17T18:43:07.931Z,16.30
2018-04-17T18:45:35.452Z,16.30
2018-04-17T18:48:03.760Z,15.80
2018-04-17T18:50:31.328Z,15.80
2018-04-17T18:52:58.859Z,15.50
2018-04-17T18:55:27.139Z,15.30
2018-04-17T18:57:55.445Z,15.30
2018-04-17T19:00:22.964Z,15.30
2018-04-17T19:02:50.570Z,15.30
2018-04-17T19:05:18.097Z,15.30
2018-04-17T19:07:46.409Z,15.30
2018-04-17T19:10:13.969Z,15.30
2018-04-17T19:12:41.504Z,15.30
2018-04-17T19:15:09.029Z,15.00
2018-04-17T19:17:36.864Z,14.80
2018-04-17T19:20:04.613Z,14.70
2018-04-17T19:22:32.153Z,14.60
2018-04-17T19:25:00.441Z,14.40
2018-04-17T19:27:28.024Z,14.40
2018-04-17T19:29:55.541Z,14.40
2018-04-17T19:32:23.094Z,14.30
2018-04-17T19:34:50.613Z,14.30
2018-04-17T19:37:18.172Z,14.30
2018-04-17T19:39:45.690Z,14.30
2018-04-17T19:42:14.012Z,14.20
2018-04-17T19:44:41.529Z,14.20
2018-04-17T19:47:09.816Z,14.30
2018-04-17T19:49:38.115Z,14.30
2018-04-17T19:52:05.639Z,14.30
2018-04-17T19:54:33.177Z,14.30
2018-04-17T19:57:00.704Z,14.30
2018-04-17T19:59:28.239Z,14.30
2018-04-17T20:01:57.078Z,14.00
2018-04-17T20:04:24.612Z,13.90
2018-04-17T20:06:52.132Z,13.70
2018-04-17T20:09:20.457Z,13.50
2018-04-17T20:11:47.976Z,13.40
2018-04-17T20:14:15.521Z,13.50
2018-04-17T20:16:43.036Z,13.50
2018-04-17T20:19:10.578Z,13.60
2018-04-17T20:21:38.896Z,13.60
2018-04-17T20:24:06.428Z,13.60
2018-04-17T20:26:34.733Z,13.40
2018-04-17T20:29:02.305Z,13.40
2018-04-17T20:31:29.829Z,13.30
2018-04-17T20:33:58.161Z,13.20
2018-04-17T20:36:25.679Z,13.20
2018-04-17T20:38:53.196Z,13.10
2018-04-17T20:41:20.741Z,13.10
2018-04-17T20:43:48.259Z,13.10
2018-04-17T20:46:15.798Z,13.00
2018-04-17T20:48:43.349Z,13.00
2018-04-17T20:51:10.885Z,13.00
2018-04-17T20:53:38.409Z,12.90
2018-04-17T20:56:05.944Z,12.90
2018-04-17T20:58:34.226Z,12.80
2018-04-17T21:01:02.560Z,12.70
2018-04-17T21:03:30.073Z,12.60
2018-04-17T21:05:58.385Z,12.50
2018-04-17T21:08:25.901Z,12.50
2018-04-17T21:10:54.206Z,12.30
2018-04-17T21:13:21.720Z,12.30
2018-04-17T21:15:49.261Z,12.20
2018-04-17T21:18:16.780Z,12.20
2018-04-17T21:20:44.322Z,12.20
2018-04-17T21:23:12.604Z,12.20
2018-04-17T21:25:40.885Z,12.20
2018-04-17T21:28:09.197Z,12.20
2018-04-17T21:30:36.758Z,12.20
2018-04-17T21:33:04.323Z,12.20
2018-04-17T21:35:31.881Z,12.10
2018-04-17T21:37:59.415Z,11.90
2018-04-17T21:40:27.701Z,11.50
2018-04-17T21:42:55.236Z,11.50
2018-04-17T21:45:23.520Z,11.40
2018-04-17T21:47:51.825Z,11.50
2018-04-17T21:50:19.339Z,11.50
2018-04-17T21:52:46.875Z,11.50
2018-04-17T21:55:14.437Z,11.60
2018-04-17T21:57:41.967Z,11.60
2018-04-17T22:00:09.484Z,11.70
2018-04-17T22:02:37.108Z,11.60
2018-04-17T22:05:04.672Z,11.40
2018-04-17T22:07:32.215Z,11.30
2018-04-17T22:09:59.755Z,11.30
2018-04-17T22:12:28.072Z,11.10
2018-04-17T22:14:55.610Z,11.10
2018-04-17T22:17:23.917Z,10.90
2018-04-17T22:19:51.460Z,10.90
2018-04-17T22:22:18.989Z,10.80
2018-04-17T22:24:46.541Z,10.80
2018-04-17T22:27:14.072Z,10.80
2018-04-17T22:29:41.614Z,10.80
2018-04-17T22:32:09.132Z,10.90
2018-04-17T22:34:36.665Z,10.90
2018-04-17T22:37:04.186Z,10.90
2018-04-17T22:39:31.725Z,10.90
2018-04-17T22:41:59.239Z,10.90
2018-04-17T22:44:26.772Z,10.90
2018-04-17T22:46:54.285Z,10.90
2018-04-17T22:49:21.820Z,10.90
2018-04-17T22:51:49.355Z,10.90
2018-04-17T22:54:16.872Z,10.90
2018-04-17T22:56:44.405Z,10.80
2018-04-17T22:59:11.920Z,10.60
2018-04-17T23:01:39.528Z,10.60
2018-04-17T23:04:07.044Z,10.60
2018-04-17T23:06:34.580Z,10.60
2018-04-17T23:09:02.097Z,10.60
2018-04-17T23:11:29.632Z,10.60
2018-04-17T23:13:57.149Z,10.40
2018-04-17T23:16:24.683Z,10.20
2018-04-17T23:18:52.264Z,10.00
2018-04-17T23:21:19.796Z,9.80
2018-04-17T23:23:48.080Z,9.80
2018-04-17T23:26:16.488Z,9.90
2018-04-17T23:28:44.000Z,9.80
2018-04-17T23:31:12.287Z,9.90
2018-04-17T23:33:40.584Z,10.00
2018-04-17T23:36:08.885Z,10.10
2018-04-17T23:38:36.447Z,10.00
2018-04-17T23:41:03.964Z,10.10
2018-04-17T23:43:31.501Z,10.10
2018-04-17T23:45:59.029Z,10.10
2018-04-17T23:48:26.573Z,10.10
2018-04-17T23:50:54.092Z,10.00
2018-04-17T23:53:21.625Z,9.80
2018-04-17T23:55:49.177Z,9.60
2018-04-17T23:58:16.733Z,9.50
